Time;durP1;ratioP1;P1;durP2;ratioP2;P2;SDS_P1;SDS_P2;PMS_P1;PMS_P2;Temp;Humidity;BMP_temperature;BMP_pressure;BME280_temperature;BME280_humidity;BME280_pressure;Samples;Min_cycle;Max_cycle;Signal;HPM_P1;HPM_P2
2023/03/11 00:01:25;;;;;;;2.85;1.50;;;20.60;30.10;;;;;;5047002;28;20053;-51
2023/03/11 00:03:51;;;;;;;3.28;1.58;;;20.60;30.00;;;;;;5049068;28;20025;-52
2023/03/11 00:06:17;;;;;;;4.70;1.50;;;20.60;30.00;;;;;;5051722;28;20372;-52
2023/03/11 00:08:43;;;;;;;2.70;1.70;;;20.60;30.60;;;;;;5048440;28;20029;-47
2023/03/11 00:11:08;;;;;;;2.40;1.50;;;20.60;30.00;;;;;;5052161;28;20075;-48
2023/03/11 00:13:35;;;;;;;2.30;1.50;;;20.60;30.00;;;;;;5047256;28;21241;-50
2023/03/11 00:16:01;;;;;;;2.42;1.50;;;20.60;30.00;;;;;;5051366;28;20035;-51
2023/03/11 00:18:30;;;;;;;2.88;1.40;;;20.50;30.00;;;;;;5048675;28;20033;-48
2023/03/11 00:20:58;;;;;;;3.33;1.80;;;20.50;29.90;;;;;;5049109;28;20404;-49
2023/03/11 00:23:25;;;;;;;3.20;1.75;;;20.50;29.90;;;;;;5048703;28;20020;-48
2023/03/11 00:25:51;;;;;;;2.83;1.10;;;20.50;29.90;;;;;;5051169;28;20051;-47
2023/03/11 00:28:19;;;;;;;1.70;1.00;;;20.50;29.90;;;;;;5047990;28;20096;-49
2023/03/11 00:30:45;;;;;;;2.42;1.30;;;20.50;29.90;;;;;;5051560;28;20086;-47
2023/03/11 00:33:13;;;;;;;2.58;1.52;;;20.50;29.90;;;;;;5050051;28;20041;-47
2023/03/11 00:35:40;;;;;;;2.25;1.10;;;20.50;29.80;;;;;;5047445;28;20021;-51
2023/03/11 00:38:11;;;;;;;2.95;1.42;;;20.50;29.80;;;;;;5048772;28;20040;-50
2023/03/11 00:40:38;;;;;;;4.22;1.40;;;20.50;29.80;;;;;;5049086;28;20380;-51
2023/03/11 00:43:04;;;;;;;1.65;1.20;;;20.50;29.80;;;;;;5049358;28;20025;-51
2023/03/11 00:45:31;;;;;;;2.13;1.00;;;20.40;29.70;;;;;;5050951;28;20048;-51
2023/03/11 00:47:57;;;;;;;3.08;1.13;;;20.40;29.70;;;;;;5047357;28;20107;-52
2023/03/11 00:50:26;;;;;;;3.35;1.35;;;20.40;29.70;;;;;;5046904;28;20174;-50
2023/03/11 00:52:53;;;;;;;2.50;1.10;;;20.40;29.60;;;;;;5047709;28;20025;-49
2023/03/11 00:55:24;;;;;;;2.83;1.20;;;20.40;29.60;;;;;;5048192;28;20025;-49
2023/03/11 00:57:56;;;;;;;2.67;1.23;;;20.40;29.60;;;;;;5044875;28;20037;-48
2023/03/11 01:00:26;;;;;;;2.20;1.10;;;20.40;29.60;;;;;;5046705;28;20033;-49
2023/03/11 01:02:52;;;;;;;1.98;1.00;;;20.40;29.50;;;;;;5050012;28;20302;-52
2023/03/11 01:05:21;;;;;;;1.55;0.80;;;20.40;29.50;;;;;;5048471;28;20120;-47
2023/03/11 01:07:47;;;;;;;1.85;1.00;;;20.40;29.50;;;;;;5045938;28;20036;-49
2023/03/11 01:10:13;;;;;;;3.05;1.40;;;20.40;29.50;;;;;;5048492;28;20029;-55
2023/03/11 01:12:39;;;;;;;1.75;0.85;;;20.40;29.50;;;;;;5046943;28;20051;-50
2023/03/11 01:15:06;;;;;;;1.77;0.98;;;20.40;29.50;;;;;;5047303;28;20127;-50
2023/03/11 01:17:33;;;;;;;1.55;0.93;;;20.30;29.30;;;;;;5049324;28;20041;-47
2023/03/11 01:19:58;;;;;;;1.20;0.73;;;20.40;29.30;;;;;;5049345;28;20108;-48
2023/03/11 01:22:24;;;;;;;2.20;1.08;;;20.30;29.30;;;;;;5050273;28;20239;-51
2023/03/11 01:24:50;;;;;;;2.15;1.00;;;20.30;29.20;;;;;;5046806;28;20037;-49
2023/03/11 01:27:16;;;;;;;3.22;1.00;;;20.30;29.20;;;;;;5045180;28;20037;-49
2023/03/11 01:29:42;;;;;;;1.63;0.90;;;20.30;29.20;;;;;;5049334;28;20052;-50
2023/03/11 01:32:09;;;;;;;1.88;1.00;;;20.30;29.20;;;;;;5049047;28;20417;-49
2023/03/11 01:34:35;;;;;;;2.47;0.93;;;20.30;29.20;;;;;;5047356;28;20036;-50
2023/03/11 01:37:02;;;;;;;1.55;1.00;;;20.30;29.20;;;;;;5043394;28;20353;-51
2023/03/11 01:39:28;;;;;;;2.15;0.82;;;20.30;29.10;;;;;;5049117;28;20025;-49
2023/03/11 01:41:55;;;;;;;3.05;1.30;;;20.30;29.20;;;;;;5047347;28;20030;-53
2023/03/11 01:44:21;;;;;;;1.98;0.98;;;20.20;29.30;;;;;;5046159;28;20163;-49
2023/03/11 01:46:53;;;;;;;2.33;0.93;;;20.20;29.30;;;;;;5043966;28;20037;-50
2023/03/11 01:49:26;;;;;;;2.13;0.90;;;20.20;29.20;;;;;;5045893;28;20040;-48
2023/03/11 01:52:06;;;;;;;2.58;1.17;;;20.20;29.20;;;;;;5045958;28;20346;-49
2023/03/11 01:54:38;;;;;;;3.17;0.80;;;20.20;29.20;;;;;;5047747;28;20183;-51
2023/03/11 01:57:11;;;;;;;2.95;0.85;;;20.20;29.10;;;;;;5048701;28;20047;-50
2023/03/11 01:59:43;;;;;;;1.55;0.75;;;20.20;29.10;;;;;;5043779;28;20029;-49
2023/03/11 02:02:18;;;;;;;2.58;0.85;;;20.20;29.10;;;;;;5045967;28;20021;-51
2023/03/11 02:04:45;;;;;;;3.08;0.80;;;20.20;29.10;;;;;;5047119;28;20052;-50
2023/03/11 02:07:12;;;;;;;3.42;1.00;;;20.20;29.00;;;;;;5048514;28;20087;-52
2023/03/11 02:09:38;;;;;;;1.25;0.70;;;20.20;29.00;;;;;;5051310;28;20017;-50
2023/03/11 02:12:07;;;;;;;1.90;0.80;;;20.20;29.00;;;;;;5047049;28;20071;-48
2023/03/11 02:14:34;;;;;;;1.85;0.90;;;20.20;29.00;;;;;;5048949;28;20047;-50
2023/03/11 02:17:00;;;;;;;2.50;0.90;;;20.20;29.00;;;;;;5048279;28;20021;-51
2023/03/11 02:19:58;;;;;;;1.48;0.70;;;20.10;28.90;;;;;;5050376;28;20050;-50
2023/03/11 02:22:28;;;;;;;2.70;0.70;;;20.10;28.90;;;;;;5047873;28;20492;-53
2023/03/11 02:24:54;;;;;;;1.77;0.70;;;20.10;28.90;;;;;;5048682;28;20033;-48
2023/03/11 02:27:22;;;;;;;1.70;0.60;;;20.10;28.90;;;;;;5044808;28;20465;-50
2023/03/11 02:29:50;;;;;;;2.20;0.98;;;20.10;28.90;;;;;;5048098;28;20025;-50
2023/03/11 02:32:17;;;;;;;2.85;0.82;;;20.10;28.90;;;;;;5046144;28;20034;-51
2023/03/11 02:34:43;;;;;;;1.98;0.68;;;20.10;28.90;;;;;;5042066;28;20029;-48
2023/03/11 02:37:12;;;;;;;1.73;0.70;;;20.10;28.80;;;;;;5042534;28;20044;-51
2023/03/11 02:39:44;;;;;;;1.38;0.80;;;20.10;28.80;;;;;;5047797;28;20383;-51
2023/03/11 02:42:26;;;;;;;2.17;0.90;;;20.00;28.70;;;;;;5048142;28;20074;-50
2023/03/11 02:45:00;;;;;;;2.60;0.80;;;20.10;28.80;;;;;;5048142;28;20029;-52
2023/03/11 02:47:28;;;;;;;1.58;0.70;;;20.10;28.80;;;;;;5048465;28;20364;-48
2023/03/11 02:49:55;;;;;;;1.77;0.70;;;20.10;28.80;;;;;;5046688;28;20021;-52
2023/03/11 02:52:27;;;;;;;1.63;0.73;;;20.00;28.70;;;;;;5058986;28;20055;-49
2023/03/11 02:54:54;;;;;;;1.65;0.65;;;20.00;28.70;;;;;;5052183;28;20025;-51
2023/03/11 02:57:20;;;;;;;2.15;0.68;;;20.00;28.70;;;;;;5055852;28;20036;-52
2023/03/11 02:59:45;;;;;;;2.22;0.80;;;20.00;28.70;;;;;;5055544;28;20058;-50
2023/03/11 03:02:13;;;;;;;2.60;0.98;;;20.00;28.70;;;;;;5056166;28;20456;-50
2023/03/11 03:04:39;;;;;;;1.67;0.75;;;20.00;28.60;;;;;;5055016;28;20025;-49
2023/03/11 03:07:06;;;;;;;1.88;0.55;;;20.00;28.60;;;;;;5049737;28;20068;-53
2023/03/11 03:09:33;;;;;;;1.10;0.57;;;20.00;28.60;;;;;;5054841;28;20452;-50
2023/03/11 03:11:59;;;;;;;1.45;0.63;;;20.00;28.60;;;;;;5054357;28;20028;-53
2023/03/11 03:14:25;;;;;;;1.10;0.50;;;20.00;28.60;;;;;;5053943;28;20140;-53
2023/03/11 03:16:51;;;;;;;1.50;0.60;;;20.00;28.60;;;;;;5054339;28;20131;-51
2023/03/11 03:19:18;;;;;;;2.63;0.65;;;19.90;28.60;;;;;;5057538;28;20334;-51
2023/03/11 03:21:44;;;;;;;1.27;0.50;;;20.00;28.60;;;;;;5053211;28;20025;-51
2023/03/11 03:24:10;;;;;;;1.42;0.60;;;19.90;28.50;;;;;;5053859;28;20035;-50
2023/03/11 03:26:37;;;;;;;1.58;0.77;;;19.90;28.50;;;;;;5053903;28;20037;-51
2023/03/11 03:29:04;;;;;;;2.17;0.80;;;19.90;28.50;;;;;;5037741;28;20028;-50
2023/03/11 03:31:31;;;;;;;2.63;0.90;;;19.90;28.50;;;;;;5053026;28;20133;-50
2023/03/11 03:33:57;;;;;;;1.75;0.70;;;19.90;28.50;;;;;;5051867;28;20037;-50
2023/03/11 03:36:23;;;;;;;2.90;0.70;;;19.90;28.50;;;;;;5053780;28;20459;-50
2023/03/11 03:38:56;;;;;;;1.90;0.95;;;19.90;28.60;;;;;;5055180;28;20021;-48
2023/03/11 03:41:24;;;;;;;1.25;0.70;;;19.90;28.70;;;;;;5053733;28;20025;-50
2023/03/11 03:43:50;;;;;;;1.45;0.65;;;19.90;28.70;;;;;;5054700;28;20036;-51
2023/03/11 03:46:16;;;;;;;1.30;0.70;;;19.90;28.60;;;;;;5053569;28;20094;-52
2023/03/11 03:48:46;;;;;;;2.78;0.82;;;19.90;28.60;;;;;;5052301;28;20083;-53
2023/03/11 03:51:13;;;;;;;1.35;0.60;;;19.90;28.60;;;;;;5052545;28;20029;-53
2023/03/11 03:53:47;;;;;;;2.17;0.70;;;19.90;28.60;;;;;;5051276;28;20388;-53
2023/03/11 03:56:16;;;;;;;1.05;0.50;;;19.90;28.60;;;;;;5050299;28;20029;-54
2023/03/11 03:58:43;;;;;;;1.73;0.80;;;19.90;28.60;;;;;;5052948;28;20025;-53
2023/03/11 04:01:10;;;;;;;1.08;0.57;;;19.90;29.10;;;;;;5053661;28;20033;-52
2023/03/11 04:03:37;;;;;;;1.15;0.50;;;19.80;28.50;;;;;;5053048;28;20025;-55
2023/03/11 04:06:14;;;;;;;1.33;0.52;;;19.80;28.50;;;;;;5052085;28;20091;-53
2023/03/11 04:08:40;;;;;;;1.50;0.70;;;19.80;28.50;;;;;;5053465;28;20035;-52
2023/03/11 04:11:07;;;;;;;1.95;1.05;;;19.80;28.50;;;;;;5053861;28;20024;-52
2023/03/11 04:13:34;;;;;;;1.73;0.50;;;19.80;28.50;;;;;;5052782;28;20052;-49
2023/03/11 04:16:05;;;;;;;1.83;0.55;;;19.80;28.50;;;;;;5051124;28;20033;-53
2023/03/11 04:18:32;;;;;;;1.00;0.60;;;19.80;28.50;;;;;;5057787;28;20024;-53
2023/03/11 04:20:58;;;;;;;1.58;0.50;;;19.80;28.50;;;;;;5053689;28;20096;-50
2023/03/11 04:23:24;;;;;;;1.30;0.50;;;19.80;28.50;;;;;;5053080;28;20122;-52
2023/03/11 04:25:50;;;;;;;0.60;0.30;;;19.80;28.50;;;;;;5050581;28;20439;-50
2023/03/11 04:28:16;;;;;;;1.48;0.63;;;19.80;28.50;;;;;;5053070;28;20466;-51
2023/03/11 04:30:44;;;;;;;2.33;0.50;;;19.70;28.50;;;;;;5050283;28;20060;-52
2023/03/11 04:33:10;;;;;;;2.22;0.60;;;19.80;28.50;;;;;;5053126;28;20479;-50
2023/03/11 04:35:39;;;;;;;1.08;0.55;;;19.70;28.50;;;;;;5049562;28;20021;-53
2023/03/11 04:38:05;;;;;;;1.73;0.65;;;19.70;28.40;;;;;;5053158;28;20025;-53
2023/03/11 04:40:32;;;;;;;1.40;0.52;;;19.70;28.40;;;;;;5052426;28;20093;-54
2023/03/11 04:42:58;;;;;;;1.85;0.60;;;19.70;28.40;;;;;;5052040;28;20048;-53
2023/03/11 04:45:24;;;;;;;1.95;0.68;;;19.70;28.40;;;;;;5051085;28;20021;-50
2023/03/11 04:47:53;;;;;;;1.13;0.40;;;19.70;28.40;;;;;;5052378;28;20041;-52
2023/03/11 04:50:19;;;;;;;1.35;0.70;;;19.70;28.40;;;;;;5052677;28;20522;-52
2023/03/11 04:52:46;;;;;;;2.35;0.75;;;19.70;28.40;;;;;;5050503;28;20095;-53
2023/03/11 04:55:13;;;;;;;2.80;0.75;;;19.70;28.40;;;;;;5049996;28;20352;-52
2023/03/11 04:57:41;;;;;;;1.23;0.50;;;19.70;28.40;;;;;;5052433;28;20033;-50
2023/03/11 05:00:11;;;;;;;1.05;0.47;;;19.70;28.40;;;;;;5052377;28;20055;-54
2023/03/11 05:02:39;;;;;;;1.70;0.70;;;19.70;28.40;;;;;;5052603;28;20053;-53
2023/03/11 05:05:07;;;;;;;2.90;0.60;;;19.70;28.40;;;;;;5051443;28;20044;-49
2023/03/11 05:07:34;;;;;;;1.83;0.50;;;19.70;28.40;;;;;;5051542;28;20367;-48
2023/03/11 05:10:00;;;;;;;1.95;0.50;;;19.70;28.40;;;;;;5060262;28;20039;-51
2023/03/11 05:12:26;;;;;;;1.83;0.52;;;19.70;28.40;;;;;;5052309;28;20105;-54
2023/03/11 05:14:53;;;;;;;1.20;0.50;;;19.60;28.30;;;;;;5047168;28;20456;-53
2023/03/11 05:17:19;;;;;;;2.50;0.60;;;19.60;28.30;;;;;;5051298;28;20028;-53
2023/03/11 05:19:47;;;;;;;1.08;0.47;;;19.60;28.30;;;;;;5043452;28;20052;-53
2023/03/11 05:22:21;;;;;;;;;;;19.60;28.30;;;;;;5052788;28;20094;-52
2023/03/11 05:24:48;;;;;;;2.13;0.50;;;19.60;28.30;;;;;;5051451;28;19919;-54
2023/03/11 05:27:16;;;;;;;3.53;0.40;;;19.60;28.70;;;;;;5051610;28;20047;-54
2023/03/11 05:29:45;;;;;;;1.60;0.60;;;19.60;28.30;;;;;;5051864;28;20029;-53
2023/03/11 05:32:12;;;;;;;3.20;0.55;;;19.60;28.20;;;;;;5051752;28;20033;-51
2023/03/11 05:34:39;;;;;;;0.80;0.45;;;19.60;28.20;;;;;;5050701;28;20037;-52
2023/03/11 05:37:06;;;;;;;1.40;0.60;;;19.60;28.20;;;;;;5061883;28;20021;-52
2023/03/11 05:39:33;;;;;;;1.27;0.50;;;19.60;28.20;;;;;;5062781;28;20119;-52
2023/03/11 05:41:59;;;;;;;1.75;0.40;;;19.60;28.20;;;;;;5054320;28;20025;-50
2023/03/11 05:44:26;;;;;;;1.67;0.70;;;19.60;28.20;;;;;;5050419;28;20429;-52
2023/03/11 05:46:54;;;;;;;1.48;0.60;;;19.60;28.20;;;;;;5051342;28;20083;-53
2023/03/11 05:49:21;;;;;;;1.08;0.40;;;19.60;28.20;;;;;;5049973;28;20032;-53
2023/03/11 05:51:49;;;;;;;1.40;0.52;;;19.60;28.20;;;;;;5051884;28;20445;-51
2023/03/11 05:54:16;;;;;;;2.05;0.70;;;19.50;28.30;;;;;;5048787;28;20029;-50
2023/03/11 05:56:46;;;;;;;1.58;0.52;;;19.50;28.30;;;;;;5052163;28;20024;-50
2023/03/11 05:59:13;;;;;;;1.70;0.70;;;19.50;28.30;;;;;;5050633;28;20052;-50
2023/03/11 06:01:40;;;;;;;0.88;0.40;;;19.50;28.80;;;;;;5053035;28;20440;-50
2023/03/11 06:04:06;;;;;;;1.75;0.60;;;19.50;28.30;;;;;;5049542;28;20033;-48
2023/03/11 06:06:32;;;;;;;1.00;0.40;;;19.50;28.30;;;;;;5052970;28;20041;-50
2023/03/11 06:08:58;;;;;;;1.08;0.50;;;19.50;28.30;;;;;;5050585;28;20063;-50
2023/03/11 06:11:27;;;;;;;2.00;0.45;;;19.50;28.30;;;;;;5050871;28;20028;-51
2023/03/11 06:13:54;;;;;;;1.77;0.50;;;19.50;28.30;;;;;;5051007;28;20037;-54
2023/03/11 06:16:21;;;;;;;1.05;0.45;;;19.50;28.20;;;;;;5051918;28;20028;-53
2023/03/11 06:18:47;;;;;;;1.08;0.40;;;19.50;28.20;;;;;;5051616;28;20033;-52
2023/03/11 06:21:16;;;;;;;0.93;0.50;;;19.50;28.20;;;;;;5054646;28;20037;-52
2023/03/11 06:23:42;;;;;;;2.92;0.50;;;19.50;28.20;;;;;;5052276;28;20111;-54
2023/03/11 06:26:11;;;;;;;1.77;0.40;;;19.50;28.20;;;;;;5054974;28;20432;-51
2023/03/11 06:28:41;;;;;;;0.82;0.30;;;19.50;28.30;;;;;;5054919;28;20094;-54
2023/03/11 06:31:21;;;;;;;1.10;0.40;;;19.50;28.30;;;;;;5051705;28;20025;-54
2023/03/11 06:33:47;;;;;;;1.85;0.40;;;19.50;28.30;;;;;;5055196;28;20063;-47
2023/03/11 06:36:16;;;;;;;0.70;0.30;;;19.50;28.30;;;;;;5052742;28;20040;-51
2023/03/11 06:38:42;;;;;;;1.92;0.50;;;19.50;28.20;;;;;;5056260;28;20025;-53
2023/03/11 06:41:09;;;;;;;1.23;0.43;;;19.40;28.20;;;;;;5052104;28;20037;-48
2023/03/11 06:43:35;;;;;;;2.20;0.40;;;19.40;28.20;;;;;;5052466;28;21429;-51
2023/03/11 06:46:08;;;;;;;2.10;0.60;;;19.40;28.20;;;;;;5053090;28;20062;-50
2023/03/11 06:48:35;;;;;;;1.88;0.60;;;19.50;28.20;;;;;;5054852;28;20017;-52
2023/03/11 06:51:01;;;;;;;0.98;0.47;;;19.40;28.10;;;;;;5055235;28;20491;-52
2023/03/11 06:53:29;;;;;;;1.83;0.60;;;19.40;28.10;;;;;;5048481;28;20437;-48
2023/03/11 06:56:06;;;;;;;0.85;0.30;;;19.50;28.10;;;;;;5054694;28;20029;-52
2023/03/11 06:58:39;;;;;;;0.50;0.20;;;19.40;28.00;;;;;;5053489;28;20032;-52
2023/03/11 07:01:18;;;;;;;1.50;0.40;;;19.40;28.00;;;;;;5050512;28;20025;-49
2023/03/11 07:03:48;;;;;;;1.08;0.40;;;19.40;27.90;;;;;;5053671;28;20037;-53
2023/03/11 07:06:16;;;;;;;1.27;0.50;;;19.40;27.90;;;;;;5052342;28;20061;-49
2023/03/11 07:08:44;;;;;;;1.00;0.40;;;19.40;28.00;;;;;;5052966;28;20047;-50
2023/03/11 07:11:20;;;;;;;1.05;0.55;;;19.40;28.00;;;;;;5054839;28;20029;-49
2023/03/11 07:13:48;;;;;;;3.45;0.50;;;19.40;28.10;;;;;;5054458;28;20428;-48
2023/03/11 07:16:19;;;;;;;1.08;0.40;;;19.40;28.10;;;;;;5053271;28;20056;-53
2023/03/11 07:18:48;;;;;;;1.58;0.43;;;19.40;28.10;;;;;;5050636;28;20036;-53
2023/03/11 07:21:16;;;;;;;2.50;0.65;;;19.40;28.20;;;;;;5056403;28;20032;-54
2023/03/11 07:23:43;;;;;;;1.83;0.60;;;19.40;28.30;;;;;;5055229;28;20379;-50
2023/03/11 07:26:10;;;;;;;2.85;0.60;;;19.40;28.50;;;;;;5047042;28;20350;-54
2023/03/11 07:28:37;;;;;;;2.33;0.47;;;19.40;28.60;;;;;;5055526;28;20472;-52
2023/03/11 07:31:14;;;;;;;1.55;0.52;;;19.40;28.70;;;;;;5051222;28;20029;-54
2023/03/11 07:33:40;;;;;;;1.13;0.47;;;19.50;28.80;;;;;;5053107;28;20056;-54
2023/03/11 07:36:17;;;;;;;0.60;0.40;;;19.50;28.80;;;;;;5053686;28;20075;-52
2023/03/11 07:38:45;;;;;;;2.25;0.63;;;19.50;28.80;;;;;;5054150;28;20124;-50
2023/03/11 07:41:11;;;;;;;1.77;0.60;;;19.60;28.80;;;;;;5054634;28;20111;-51
2023/03/11 07:43:38;;;;;;;2.83;0.50;;;19.70;28.70;;;;;;5054088;28;20103;-53
2023/03/11 07:46:17;;;;;;;1.63;0.30;;;19.70;28.60;;;;;;5055167;28;20116;-51
2023/03/11 07:48:44;;;;;;;1.05;0.35;;;19.80;28.60;;;;;;5054262;28;20067;-53
2023/03/11 07:51:15;;;;;;;2.55;0.60;;;19.90;28.50;;;;;;5053648;28;20017;-51
2023/03/11 07:53:50;;;;;;;1.48;0.60;;;19.90;28.40;;;;;;5054239;28;20032;-52
2023/03/11 07:56:16;;;;;;;3.05;0.65;;;20.00;28.40;;;;;;5053405;28;20028;-48
2023/03/11 07:58:43;;;;;;;2.15;0.60;;;20.10;28.40;;;;;;5053404;28;20025;-50
2023/03/11 08:01:12;;;;;;;1.33;0.40;;;20.10;28.30;;;;;;5051054;28;20029;-54
2023/03/11 08:03:38;;;;;;;1.40;0.40;;;20.20;28.30;;;;;;5054465;28;20029;-48
2023/03/11 08:06:15;;;;;;;1.48;0.50;;;20.30;28.30;;;;;;5051353;28;20345;-51
2023/03/11 08:08:41;;;;;;;2.00;0.50;;;20.30;28.30;;;;;;5056323;28;20116;-51
2023/03/11 08:11:07;;;;;;;0.93;0.50;;;20.40;28.30;;;;;;5053843;28;20460;-50
2023/03/11 08:13:33;;;;;;;1.83;0.50;;;20.50;28.30;;;;;;5048580;28;20055;-49
2023/03/11 08:16:03;;;;;;;1.23;0.50;;;20.50;28.20;;;;;;5054754;28;20321;-53
2023/03/11 08:18:29;;;;;;;1.67;0.50;;;20.60;28.10;;;;;;5053529;28;20098;-51
2023/03/11 08:20:56;;;;;;;1.15;0.45;;;20.70;28.10;;;;;;5052637;28;20045;-52
2023/03/11 08:23:21;;;;;;;1.25;0.40;;;20.70;28.00;;;;;;5054741;28;20104;-49
2023/03/11 08:25:47;;;;;;;1.50;0.40;;;20.80;27.90;;;;;;5043058;28;20129;-51
2023/03/11 08:28:13;;;;;;;1.27;0.40;;;20.90;28.00;;;;;;5053599;28;20052;-50
2023/03/11 08:30:39;;;;;;;0.70;0.30;;;20.90;27.80;;;;;;5052790;28;20040;-52
2023/03/11 08:33:09;;;;;;;0.55;0.43;;;20.90;27.80;;;;;;5052877;28;20082;-51
2023/03/11 08:35:36;;;;;;;1.10;0.38;;;21.00;27.70;;;;;;5051740;28;20104;-47
2023/03/11 08:38:03;;;;;;;0.65;0.30;;;21.10;27.70;;;;;;5051400;28;20111;-49
2023/03/11 08:40:29;;;;;;;1.55;0.35;;;21.10;27.60;;;;;;5055365;28;20025;-51
2023/03/11 08:42:55;;;;;;;0.68;0.30;;;21.10;27.50;;;;;;5053477;28;20025;-51
2023/03/11 08:45:21;;;;;;;1.33;0.60;;;21.20;27.50;;;;;;5052315;28;20029;-47
2023/03/11 08:47:47;;;;;;;0.82;0.40;;;21.20;27.50;;;;;;5057876;28;20037;-47
2023/03/11 08:50:16;;;;;;;1.20;0.40;;;21.30;27.50;;;;;;5053075;28;20025;-47
2023/03/11 08:52:42;;;;;;;3.25;0.40;;;21.30;27.50;;;;;;5052358;28;20033;-53
2023/03/11 08:55:11;;;;;;;1.10;0.40;;;21.30;27.40;;;;;;5050245;28;20028;-52
2023/03/11 08:57:37;;;;;;;0.52;0.25;;;21.40;27.40;;;;;;5054153;28;20028;-48
2023/03/11 09:00:06;;;;;;;1.90;0.32;;;21.40;27.40;;;;;;5053890;28;20031;-50
2023/03/11 09:02:32;;;;;;;1.15;0.30;;;21.40;27.30;;;;;;5053857;28;20033;-47
2023/03/11 09:04:57;;;;;;;1.42;0.50;;;21.40;27.30;;;;;;5053861;28;20399;-52
2023/03/11 09:07:23;;;;;;;1.23;0.30;;;21.50;27.30;;;;;;5051387;28;20048;-48
2023/03/11 09:09:49;;;;;;;0.77;0.20;;;21.50;27.20;;;;;;5037332;28;20071;-49
2023/03/11 09:12:15;;;;;;;3.80;0.30;;;21.50;27.20;;;;;;5041012;28;20033;-52
2023/03/11 09:14:41;;;;;;;1.42;0.40;;;21.50;27.30;;;;;;5039317;28;20068;-51
2023/03/11 09:17:10;;;;;;;1.25;0.40;;;21.50;27.40;;;;;;5044223;28;20112;-49
2023/03/11 09:19:37;;;;;;;1.90;0.40;;;21.50;27.40;;;;;;5042824;28;20365;-49
2023/03/11 09:22:04;;;;;;;3.67;0.40;;;21.50;27.30;;;;;;5043765;28;20029;-49
2023/03/11 09:24:33;;;;;;;2.25;0.30;;;21.50;27.30;;;;;;5038801;28;20440;-51
2023/03/11 09:26:59;;;;;;;1.77;0.40;;;21.50;27.30;;;;;;5038214;28;20065;-50
2023/03/11 09:29:26;;;;;;;2.50;0.30;;;21.50;27.20;;;;;;5041401;28;20032;-50
2023/03/11 09:31:51;;;;;;;1.30;0.50;;;21.50;27.30;;;;;;5034113;28;20048;-50
2023/03/11 09:34:17;;;;;;;0.70;0.30;;;21.50;27.50;;;;;;5052298;28;20108;-53
2023/03/11 09:36:43;;;;;;;0.68;0.32;;;21.50;27.50;;;;;;5053801;28;20037;-51
2023/03/11 09:39:09;;;;;;;0.77;0.40;;;21.50;27.50;;;;;;5054414;28;20025;-51
2023/03/11 09:42:00;;;;;;;1.00;0.30;;;21.50;27.40;;;;;;5053629;28;20452;-53
2023/03/11 09:44:44;;;;;;;0.63;0.38;;;21.50;27.30;;;;;;5054540;28;20028;-50
2023/03/11 09:47:35;;;;;;;1.17;0.20;;;21.40;27.20;;;;;;5054928;28;20340;-50
2023/03/11 09:50:29;;;;;;;1.67;0.45;;;21.40;27.20;;;;;;5054826;28;20719;-52
2023/03/11 09:53:16;;;;;;;1.45;0.57;;;21.40;27.10;;;;;;5052897;28;20112;-51
2023/03/11 09:55:52;;;;;;;1.33;0.30;;;21.40;27.10;;;;;;5052789;28;20096;-54
2023/03/11 09:58:38;;;;;;;1.17;0.40;;;21.40;27.00;;;;;;5058041;28;20031;-52
2023/03/11 10:01:44;;;;;;;1.23;0.20;;;21.40;27.00;;;;;;5074755;28;20029;-52
2023/03/11 10:04:15;;;;;;;0.65;0.20;;;21.40;27.00;;;;;;5070971;28;20156;-51
2023/03/11 10:06:44;;;;;;;1.23;0.40;;;21.30;27.40;;;;;;5053411;28;20124;-51
2023/03/11 10:09:37;;;;;;;0.63;0.20;;;21.30;26.90;;;;;;5057473;28;20040;-49
2023/03/11 10:12:36;;;;;;;1.73;0.68;;;21.30;26.90;;;;;;5052399;28;20032;-47
2023/03/11 10:15:26;;;;;;;1.20;0.40;;;21.30;26.90;;;;;;5052851;28;20048;-53
2023/03/11 10:18:36;;;;;;;0.82;0.30;;;21.30;26.80;;;;;;5056316;28;20052;-54
2023/03/11 10:21:30;;;;;;;0.60;0.38;;;21.30;26.80;;;;;;5050234;28;20040;-50
2023/03/11 10:23:56;;;;;;;1.15;0.43;;;21.30;26.80;;;;;;5051758;28;20112;-49
2023/03/11 10:26:40;;;;;;;0.68;0.20;;;21.30;26.80;;;;;;5052679;28;20132;-51
2023/03/11 10:29:15;;;;;;;0.68;0.50;;;21.30;26.80;;;;;;5051020;28;20405;-52
2023/03/11 10:32:02;;;;;;;0.73;0.30;;;21.30;26.80;;;;;;5051567;28;20456;-51
2023/03/11 10:34:47;;;;;;;0.30;0.30;;;21.30;26.80;;;;;;5052078;28;20035;-52
2023/03/11 10:37:19;;;;;;;0.88;0.40;;;21.20;26.70;;;;;;5052648;28;20048;-50
2023/03/11 10:39:47;;;;;;;1.92;0.30;;;21.30;26.70;;;;;;5051066;28;20056;-52
2023/03/11 10:42:20;;;;;;;0.88;0.32;;;21.30;26.70;;;;;;5052627;28;20395;-50
2023/03/11 10:44:46;;;;;;;1.70;0.30;;;21.30;26.70;;;;;;5051357;28;20029;-53
2023/03/11 10:47:17;;;;;;;0.70;0.30;;;21.30;26.70;;;;;;5051355;28;20055;-52
2023/03/11 10:49:43;;;;;;;2.25;0.82;;;21.30;26.80;;;;;;5051273;28;20021;-49
2023/03/11 10:52:09;;;;;;;1.65;0.32;;;21.30;26.90;;;;;;5052437;28;20052;-52
2023/03/11 10:54:45;;;;;;;2.17;0.40;;;21.30;26.80;;;;;;5050258;28;20063;-51
2023/03/11 10:57:37;;;;;;;1.23;0.40;;;21.30;27.10;;;;;;5049295;28;20356;-49
2023/03/11 11:00:16;;;;;;;1.00;0.30;;;21.30;27.80;;;;;;5050613;28;20021;-53
2023/03/11 11:03:00;;;;;;;0.52;0.22;;;21.30;28.30;;;;;;5051193;28;20079;-52
2023/03/11 11:05:32;;;;;;;0.55;0.25;;;21.30;28.70;;;;;;5052665;28;20028;-52
2023/03/11 11:08:14;;;;;;;0.40;0.30;;;21.40;28.90;;;;;;5056363;28;20071;-53
2023/03/11 11:10:58;;;;;;;1.30;0.50;;;21.40;29.50;;;;;;5055629;28;20028;-53
2023/03/11 11:13:28;;;;;;;0.90;0.30;;;21.40;29.10;;;;;;5055220;28;20044;-51
2023/03/11 11:16:26;;;;;;;2.38;0.40;;;21.40;29.20;;;;;;5052762;28;20354;-49
2023/03/11 11:19:11;;;;;;;0.65;0.25;;;21.40;29.30;;;;;;5052402;28;20120;-50
2023/03/11 11:21:42;;;;;;;1.55;0.30;;;21.50;29.50;;;;;;5051609;28;20021;-50
2023/03/11 11:24:19;;;;;;;0.77;0.25;;;21.40;29.50;;;;;;5055309;28;20068;-47
2023/03/11 11:27:22;;;;;;;0.82;0.20;;;21.50;29.60;;;;;;5052359;28;20037;-50
2023/03/11 11:30:08;;;;;;;1.25;0.20;;;21.50;29.70;;;;;;5051960;28;20037;-54
2023/03/11 11:32:35;;;;;;;0.57;0.30;;;21.50;29.60;;;;;;5050795;28;20064;-55
2023/03/11 11:35:14;;;;;;;0.70;0.35;;;21.50;29.70;;;;;;5055261;28;20057;-49
2023/03/11 11:37:47;;;;;;;1.08;0.40;;;21.50;29.80;;;;;;5052520;28;20033;-50
2023/03/11 11:40:13;;;;;;;3.75;0.30;;;21.50;30.00;;;;;;5055251;28;20087;-53
2023/03/11 11:42:47;;;;;;;0.47;0.20;;;21.60;30.00;;;;;;5054607;28;20025;-53
2023/03/11 11:45:22;;;;;;;1.45;0.28;;;21.60;30.00;;;;;;5054827;28;20032;-54
2023/03/11 11:47:52;;;;;;;1.00;0.30;;;21.60;30.00;;;;;;5046585;28;20356;-54
2023/03/11 11:50:32;;;;;;;0.65;0.30;;;21.70;30.00;;;;;;5054950;28;20067;-56
2023/03/11 11:53:11;;;;;;;0.47;0.25;;;21.70;30.00;;;;;;5053694;28;20028;-53
2023/03/11 11:55:42;;;;;;;0.43;0.20;;;21.70;30.60;;;;;;5051298;28;20029;-57
2023/03/11 11:58:11;;;;;;;2.50;0.55;;;21.80;30.10;;;;;;5057236;28;20029;-54
2023/03/11 12:01:03;;;;;;;3.38;0.30;;;21.80;30.10;;;;;;5064209;28;20463;-51
2023/03/11 12:03:52;;;;;;;1.25;0.30;;;21.80;30.10;;;;;;5059571;28;20460;-57
2023/03/11 12:06:34;;;;;;;1.27;0.52;;;21.80;30.10;;;;;;5054473;28;20052;-55
2023/03/11 12:09:13;;;;;;;3.70;1.10;;;21.80;30.20;;;;;;5059986;28;20031;-46
2023/03/11 12:12:05;;;;;;;2.17;1.10;;;21.80;30.20;;;;;;5051221;28;20040;-45
2023/03/11 12:14:47;;;;;;;3.33;2.30;;;21.80;30.40;;;;;;5038989;28;20182;-53
2023/03/11 12:17:17;;;;;;;3.58;2.80;;;21.80;30.50;;;;;;5051322;28;20039;-55
2023/03/11 12:19:47;;;;;;;5.10;3.28;;;21.80;30.70;;;;;;5059344;28;20037;-59
2023/03/11 12:22:38;;;;;;;8.35;4.03;;;21.90;30.90;;;;;;5052585;28;20415;-51
2023/03/11 12:25:32;;;;;;;7.47;3.97;;;21.90;31.40;;;;;;5036092;28;20029;-52
2023/03/11 12:28:17;;;;;;;7.65;5.13;;;21.90;31.40;;;;;;5048486;28;20090;-52
2023/03/11 12:30:52;;;;;;;11.13;6.43;;;21.90;31.20;;;;;;5051917;28;20033;-52
2023/03/11 12:33:28;;;;;;;9.85;6.95;;;21.90;31.00;;;;;;5052898;28;20056;-50
2023/03/11 12:35:56;;;;;;;11.93;8.05;;;22.00;31.10;;;;;;5052577;28;20170;-52
2023/03/11 12:38:39;;;;;;;11.95;8.50;;;21.90;31.00;;;;;;5053226;28;20028;-53
2023/03/11 12:41:14;;;;;;;12.55;8.90;;;22.00;31.00;;;;;;5052267;28;20090;-54
2023/03/11 12:43:40;;;;;;;16.35;9.77;;;22.00;30.80;;;;;;5048755;28;20033;-52
2023/03/11 12:46:08;;;;;;;16.48;10.80;;;22.00;30.70;;;;;;5075038;28;20355;-48
2023/03/11 12:48:50;;;;;;;16.60;11.55;;;22.00;30.80;;;;;;5061345;28;20040;-53
2023/03/11 12:51:25;;;;;;;18.65;12.65;;;22.00;30.90;;;;;;5063979;28;20036;-54
2023/03/11 12:53:55;;;;;;;18.25;12.35;;;22.00;30.90;;;;;;5053494;28;20444;-51
2023/03/11 12:56:30;;;;;;;18.08;13.88;;;22.00;30.80;;;;;;5050895;28;20102;-51
2023/03/11 12:59:34;;;;;;;18.85;13.75;;;22.00;30.70;;;;;;5050819;28;20037;-54
2023/03/11 13:02:18;;;;;;;21.27;14.57;;;22.00;30.60;;;;;;5050982;28;20033;-54
2023/03/11 13:05:04;;;;;;;22.02;15.52;;;22.10;30.60;;;;;;5051122;28;20029;-48